Tiempo atmosférico en la estación meteorológica de Mula, Murcia (290 m.)



Fecha
DESCASC
Temp. máxima en grados centígrados (hora)
DESCASC
Temp. mínima en grados centígrados (hora)
DESCASC
Temp. media en grados centígrados
DESCASC
Racha de viento máxima en m/sg (hora)
DESCASC
Velocidad máxima media en intervalos de 10 minutos(hora)
DESCASC
Precipitaciones diarias en mm
DESCASC
Precipitaciones de 00:00 a 06:00 en mm
DESCASC
Precipitaciones de 06:00 a 12:00 en mm
DESCASC
Precipitaciones de 12:00 a 18:00 en mm
DESCASC
Precipitaciones de 18:00 a 24:00 en mm
DESCASC
06-07-2020 35.7 (16:50) 18.6 (07:00) 27.2 9.72 (16:10) 5 (15:20) 0 0 0 0 0
05-07-2020 33.8 (15:50) 18.2 (06:40) 26 9.17 (17:00) 5.28 (16:40) 0 0 0 0 0
04-07-2020 33 (16:20) 22.2 (06:30) 27.6 10 (16:40) 5.56 (16:50) 0 0 0 0 0
03-07-2020 32.8 (15:30) 18.9 (07:10) 25.8 10.83 (17:30) 6.94 (17:50) 0 0 0 0 0
02-07-2020 38.2 (15:10) 21.4 (00:00) 29.8 8.89 (15:50) 4.72 (20:10) 0 0 0 0 0
01-07-2020 38.5 (15:50) 18.3 (00:00) 28.4 9.17 (17:40) 4.72 (17:10) 0 0 0 0 0
30-06-2020 33.6 (15:20) 17.5 (00:00) 25.5 9.44 (18:20) 5.28 (17:50) 0 0 0 0 0
29-06-2020 33.6 (15:20) 17.2 (00:00) 25.4 11.39 (17:10) 6.94 (16:10) 0 0 0 0 0
28-06-2020 34.4 (16:00) 17.7 (00:00) 26.1 10 (15:40) 5.83 (16:50) 0 0 0 0 0
27-06-2020 35.9 (15:10) 19.7 (00:00) 27.8 8.33 (18:30) 4.17 (18:30) 0 0 0 0 0
26-06-2020 32.8 (16:00) 17.9 (00:00) 25.3 11.11 (16:50) 5.56 (19:30) 0 0 0 0 0
25-06-2020 32.9 (15:10) 16.9 (00:00) 24.9 9.17 (16:10) 5.56 (16:20) 0 0 0 0 0
24-06-2020 31.2 (17:50) 16.4 (00:00) 23.8 8.06 (12:30) 4.44 (21:00) 0 0 0 0 0
23-06-2020 30.8 (15:20) 16.6 (00:00) 23.7 9.44 (17:50) 5 (14:30) 0 0 0 0 0
22-06-2020 31.7 (15:20) 17.5 (00:00) 24.6 11.39 (16:10) 6.39 (16:10) 0 0 0 0 0
21-06-2020 35 (15:50) 18 (00:00) 26.5 9.44 (17:10) 5.28 (19:50) 0 0 0 0 0
20-06-2020 33.5 (17:00) 15.7 (00:00) 24.6 7.78 (16:30) 3.89 (17:20) 0 0 0 0 0
19-06-2020 29.4 (15:30) 19.6 (00:00) 24.5 8.33 (16:10) 4.17 (16:30) 0 0 0 0 0
18-06-2020 30.2 (16:00) 18.8 (00:00) 24.5 10.83 (18:20) 6.11 (18:20) 0 0 0 0 0
17-06-2020 29.8 (14:20) 15.9 (00:00) 22.8 10 (14:40) 4.72 (15:00) 3.4 0 0 3.4 0
16-06-2020 32.9 (15:10) 17.2 (00:00) 25.1 10.56 (10:20) 7.22 (10:20) 0 0 0 0 0
15-06-2020 33.6 (16:30) 16.7 (00:00) 25.1 10 (18:40) 6.11 (10:50) 0 0 0 0 0
14-06-2020 30.9 (15:50) 15 (00:00) 22.9 9.17 (18:00) 5.83 (10:30) 0 0 0 0 0
13-06-2020 29.5 (15:40) 15.6 (00:00) 22.6 12.78 (00:50) 9.17 (00:50) 0 0 0 0 0
12-06-2020 28.8 (18:00) 18.5 (00:00) 23.6 13.61 (01:20) 7.5 (01:20) 0 0 0 0 0
11-06-2020 30.9 (17:30) 14.4 (00:00) 22.6 10.83 (20:00) 6.39 (23:20) 0 0 0 0 0
10-06-2020 29 (16:00) 13.9 (00:00) 21.4 7.78 (17:00) 3.89 (16:30) 0 0 0 0 0
09-06-2020 25.7 (13:50) 16.5 (00:00) 21.1 8.61 (17:50) 4.44 (17:30) 0.4 0 0 0.4 0
08-06-2020 23.3 (12:00) 16.5 (07:00) 19.9 9.17 (16:30) 5.28 (16:30) 0.8 0 0 0.8 0

Gráficas

Temp. máximas Temp. mínimas Temp. medias Precipitaciones Rachas de viento máximas Velocidades máximas media en intervalos de 10 minutos

Datos horarios

Fecha y hora oficial Temperatura (ºC) Velocidad del viento (km/h) Dirección del viento Racha (km/h) Dirección de racha Precipitación (mm) Presión (hPa) Tendencia (hPa) Humedad (%)
2020-07-07 23:00:00 26.8 8 Este 22 Este 0 -- -- 51
2020-07-07 22:00:00 28.3 12 Nordeste 23 Este 0 -- -- 48
2020-07-07 21:00:00 31.4 15 Este 26 Este 0 -- -- 41
2020-07-07 20:00:00 33.6 6 Sudeste 21 Sudeste 0 -- -- 31
2020-07-07 19:00:00 35.1 8 Sur 22 Sudeste 0 -- -- 29
2020-07-07 18:00:00 36.2 9 Sudeste 27 Sudeste 0 -- -- 26
2020-07-07 17:00:00 36.6 14 Sudeste 38 Este 0 -- -- 24
2020-07-07 16:00:00 36.8 16 Este 31 Este 0 -- -- 24
2020-07-07 15:00:00 36.2 11 Este 23 Este 0 -- -- 21
2020-07-07 14:00:00 35.1 8 Sudeste 21 Sudeste 0 -- -- 21
2020-07-07 13:00:00 32.3 10 Este 17 Este 0 -- -- 27
2020-07-07 12:00:00 30.4 8 Este 17 Sudeste 0 -- -- 32
2020-07-07 11:00:00 28.5 8 Este 13 Este 0 -- -- 33
2020-07-07 10:00:00 25 2 Sudeste 11 Oeste 0 -- -- 42
2020-07-07 09:00:00 21.5 8 Oeste 15 Oeste 0 -- -- 58
2020-07-07 08:00:00 18.8 11 Oeste 17 Oeste 0 -- -- 66
2020-07-07 07:00:00 17.9 11 Oeste 15 Sudoeste 0 -- -- 67
2020-07-07 06:00:00 18.5 9 Oeste 14 Oeste 0 -- -- 66
2020-07-07 05:00:00 19.3 6 Sudoeste 12 Oeste 0 -- -- 63
2020-07-07 04:00:00 20.2 8 Oeste 9 Oeste 0 -- -- 62
2020-07-07 03:00:00 21.9 0 Calma 5 Sudoeste 0 -- -- 61
2020-07-07 02:00:00 22.9 0 Calma 7 Este 0 -- -- 57
2020-07-07 01:00:00 23.3 4 Nordeste 10 Este 0 -- -- 57
2020-07-07 00:00:00 24.7 5 Este 12 Este 0 -- -- 49
2020-07-06 23:00:00 26 6 Nordeste 13 Este 0 -- -- 43
2020-07-06 22:00:00 27.9 5 Sudeste 18 Sur 0 -- -- 32
2020-07-06 21:00:00 29.7 7 Sur 24 Sudeste 0 -- -- 30
2020-07-06 20:00:00 31.6 9 Sur 22 Sudeste 0 -- -- 30
2020-07-06 19:00:00 33.4 9 Sur 29 Sudeste 0 -- -- 29
2020-07-06 18:00:00 34.6 10 Sur 32 Sudeste 0 -- -- 29
2020-07-06 17:00:00 35.7 12 Sur 35 Este 0 -- -- 28
2020-07-06 16:00:00 35.6 14 Este 29 Nordeste 0 -- -- 27
2020-07-06 15:00:00 34.9 15 Este 29 Este 0 -- -- 28
2020-07-06 14:00:00 34.3 11 Sudeste 21 Sudeste 0 -- -- 30
2020-07-06 13:00:00 32.5 10 Este 23 Este 0 -- -- 35
2020-07-06 12:00:00 30.8 8 Este 17 Este 0 -- -- 40
2020-07-06 11:00:00 28.4 3 Nordeste 9 Sudoeste 0 -- -- 46
2020-07-06 10:00:00 25.5 6 Oeste 13 Oeste 0 -- -- 56
2020-07-06 09:00:00 22.1 9 Oeste 19 Oeste 0 -- -- 68
2020-07-06 08:00:00 19.2 8 Oeste 20 Oeste 0 -- -- 77
2020-07-06 07:00:00 18.6 9 Oeste 17 Oeste 0 -- -- 77
2020-07-06 06:00:00 18.9 10 Oeste 16 Oeste 0 -- -- 77
2020-07-06 05:00:00 19.4 9 Oeste 13 Oeste 0 -- -- 76
2020-07-06 04:00:00 20.3 7 Oeste 9 Sudoeste 0 -- -- 73
2020-07-06 03:00:00 21.2 3 Oeste 4 Norte 0 -- -- 69
2020-07-06 02:00:00 21.7 0 Calma 4 Nordeste 0 -- -- 67
2020-07-06 01:00:00 22.7 0 Calma 4 Este 0 -- -- 64
2020-07-06 00:00:00 23.5 3 Nordeste 7 Este 0 -- -- 62
2020-07-05 23:00:00 24.7 6 Este 19 Este 0 -- -- 58
2020-07-05 22:00:00 25.9 13 Este 24 Este 0 -- -- 54
2020-07-05 21:00:00 28.1 12 Este 25 Este 0 -- -- 45
2020-07-05 20:00:00 29.5 14 Este 29 Este 0 -- -- 43
2020-07-05 19:00:00 31.2 14 Este 31 Este 0 -- -- 42
2020-07-05 18:00:00 32.1 17 Este 33 Este 0 -- -- 40
2020-07-05 17:00:00 33 19 Este 33 Este 0 -- -- 36
2020-07-05 16:00:00 33.7 15 Este 32 Sudeste 0 -- -- 34
2020-07-05 15:00:00 33.2 13 Sudeste 28 Sudeste 0 -- -- 36
2020-07-05 14:00:00 32 10 Sudeste 27 Sudeste 0 -- -- 38
2020-07-05 13:00:00 30.5 10 Sudeste 25 Sudeste 0 -- -- 39
2020-07-05 12:00:00 28.8 7 Este 18 Este 0 -- -- 42
2020-07-05 11:00:00 27.1 6 Sudeste 12 Este 0 -- -- 45
2020-07-05 10:00:00 24 3 Este 10 Oeste 0 -- -- 59
2020-07-05 09:00:00 21.2 5 Oeste 14 Oeste 0 -- -- 77
2020-07-05 08:00:00 18.7 5 Oeste 16 Oeste 0 -- -- 85
2020-07-05 07:00:00 18.2 6 Oeste 14 Oeste 0 -- -- 86
2020-07-05 06:00:00 18.6 11 Oeste 16 Oeste 0 -- -- 84
2020-07-05 05:00:00 19 10 Oeste 13 Oeste 0 -- -- 84
2020-07-05 04:00:00 20.1 6 Oeste 10 Oeste 0 -- -- 80
2020-07-05 03:00:00 21.1 0 Calma 3 Nordeste 0 -- -- 77
2020-07-05 02:00:00 21.4 0 Calma 8 Nordeste 0 -- -- 75
2020-07-05 01:00:00 22.1 6 Nordeste 8 Nordeste 0 -- -- 73
2020-07-05 00:00:00 23.1 3 Este 16 Este 0 -- -- 70
2020-07-04 23:00:00 24.1 10 Este 24 Este 0 -- -- 65
2020-07-04 22:00:00 25.5 17 Este 26 Este 0 -- -- 60
2020-07-04 21:00:00 27.6 13 Este 27 Este 0 -- -- 55
2020-07-04 20:00:00 29.3 15 Este 28 Este 0 -- -- 51
2020-07-04 19:00:00 30.5 16 Este 32 Nordeste 0 -- -- 49
2020-07-04 18:00:00 31.3 18 Este 35 Este 0 -- -- 48
2020-07-04 17:00:00 32.3 18 Este 36 Este 0 -- -- 47
2020-07-04 16:00:00 32.8 13 Este 27 Sudeste 0 -- -- 44
2020-07-04 15:00:00 31.9 10 Sudeste 25 Este 0 -- -- 45
2020-07-04 14:00:00 30.6 10 Sudeste 24 Este 0 -- -- 49
2020-07-04 13:00:00 28.9 8 Sudeste 26 Sudeste 0 -- -- 55
2020-07-04 12:00:00 26.7 7 Este 15 Sudeste 0 -- -- 62
2020-07-04 11:00:00 26.4 4 Este 13 Sudeste 0 -- -- 63
2020-07-04 10:00:00 24.8 5 Sudeste 13 Sur 0 -- -- 69
2020-07-04 09:00:00 23.4 5 Este 11 Este 0 -- -- 81
2020-07-04 08:00:00 22.5 0 Calma 13 Sudeste 0 -- -- 86
2020-07-04 07:00:00 22.3 5 Este 13 Este 0 -- -- 88
2020-07-04 06:00:00 22.3 9 Este 15 Este 0 -- -- 87
2020-07-04 05:00:00 22.5 8 Este 13 Este 0 -- -- 86
2020-07-04 04:00:00 22.6 6 Este 14 Este 0 -- -- 85
2020-07-04 03:00:00 22.7 5 Este 14 Este 0 -- -- 84
2020-07-04 02:00:00 22.9 5 Este 9 Este 0 -- -- 83
2020-07-04 01:00:00 23.2 6 Este 15 Este 0 -- -- 82
2020-07-04 00:00:00 23.9 9 Este 20 Este 0 -- -- 79
2020-07-03 23:00:00 24.7 9 Este 19 Sudeste 0 -- -- 74
2020-07-03 22:00:00 25.3 10 Sudeste 27 Sudeste 0 -- -- 70
2020-07-03 21:00:00 26.2 14 Este 35 Este 0 -- -- 66
2020-07-03 20:00:00 27.6 17 Este 33 Este 0 -- -- 61
2020-07-03 19:00:00 29.2 16 Este 33 Este 0 -- -- 55
2020-07-03 18:00:00 29.7 22 Este 39 Este 0 -- -- 54
2020-07-03 17:00:00 31.5 17 Este 38 Sudeste 0 -- -- 48
2020-07-03 16:00:00 32.5 18 Este 33 Este 0 -- -- 43
2020-07-03 15:00:00 32.7 15 Sudeste 29 Este 0 -- -- 42
2020-07-03 14:00:00 31.9 9 Sudeste 23 Este 0 -- -- 41
2020-07-03 13:00:00 30.4 8 Sudeste 21 Este 0 -- -- 43
2020-07-03 12:00:00 29.4 8 Este 18 Este 0 -- -- 52
2020-07-03 11:00:00 27.6 7 Este 14 Este 0 -- -- 57
2020-07-03 10:00:00 24.9 4 Este 8 Este 0 -- -- 71
2020-07-03 09:00:00 21.9 5 Sudoeste 12 Sudoeste 0 -- -- 75
2020-07-03 08:00:00 19.3 10 Oeste 15 Sudoeste 0 -- -- 78
2020-07-03 07:00:00 19 9 Sudoeste 14 Sudoeste 0 -- -- 81
2020-07-03 06:00:00 19.3 11 Oeste 15 Oeste 0 -- -- 83
2020-07-03 05:00:00 20.4 9 Oeste 12 Sudoeste 0 -- -- 84
2020-07-03 04:00:00 21.5 6 Sudoeste 8 Oeste 0 -- -- 83
2020-07-03 03:00:00 22.1 4 Noroeste 10 Oeste 0 -- -- 82
2020-07-03 02:00:00 23.2 5 Sudoeste 9 Sudoeste 0 -- -- 78
2020-07-03 01:00:00 24.3 2 Sudoeste 5 Sur 0 -- -- 74
2020-07-03 00:00:00 24.8 4 Este 11 Nordeste 0 -- -- 72
2020-07-02 23:00:00 26 3 Este 13 Este 0 -- -- 70
2020-07-02 22:00:00 27.2 8 Este 19 Este 0 -- -- 67
2020-07-02 21:00:00 28.8 11 Este 26 Este 0 -- -- 62
2020-07-02 20:00:00 31.4 16 Nordeste 31 Nordeste 0 -- -- 54
2020-07-02 19:00:00 33.3 11 Sudeste 25 Sudeste 0 -- -- 41
2020-07-02 18:00:00 34.3 11 Sur 28 Sudeste 0 -- -- 39
2020-07-02 17:00:00 35.5 12 Sur 31 Sudeste 0 -- -- 37
2020-07-02 16:00:00 37.4 13 Sur 32 Sudeste 0 -- -- 33
2020-07-02 15:00:00 37.9 12 Este 26 Nordeste 0 -- -- 19
2020-07-02 14:00:00 37.2 8 Este 20 Nordeste 0 -- -- 21
2020-07-02 13:00:00 35.7 9 Sudeste 18 Este 0 -- -- 22
2020-07-02 12:00:00 34 11 Este 21 Este 0 -- -- 23
2020-07-02 11:00:00 33.1 8 Este 23 Norte 0 -- -- 23
2020-07-02 10:00:00 29.7 12 Noroeste 22 Noroeste 0 -- -- 26
2020-07-02 09:00:00 23.9 12 Sudoeste 17 Sudoeste 0 -- -- 36
2020-07-02 08:00:00 21.5 13 Sudoeste 22 Sudoeste 0 -- -- 38
2020-07-02 07:00:00 21.6 15 Oeste 19 Sudoeste 0 -- -- 33
2020-07-02 06:00:00 22 6 Oeste 17 Oeste 0 -- -- 30
2020-07-02 05:00:00 21.6 15 Oeste 18 Oeste 0 -- -- 34
2020-07-02 04:00:00 23.3 12 Oeste 17 Oeste 0 -- -- 33
2020-07-02 03:00:00 24.2 10 Oeste 20 Noroeste 0 -- -- 32
2020-07-02 02:00:00 24.1 10 Oeste 16 Oeste 0 -- -- 38
2020-07-02 01:00:00 25 11 Oeste 18 Oeste 0 -- -- 41
2020-07-02 00:00:00 26.5 12 Oeste 17 Sudoeste 0 -- -- 47
2020-07-01 23:00:00 28.2 12 Oeste 17 Oeste 0 -- -- 45
2020-07-01 22:00:00 30.8 2 Oeste 9 Sudeste 0 -- -- 40
2020-07-01 21:00:00 33.1 8 Sudeste 13 Este 0 -- -- 36
2020-07-01 20:00:00 35.1 7 Este 21 Sudeste 0 -- -- 29
2020-07-01 19:00:00 35.2 9 Sur 31 Sur 0 -- -- 29
2020-07-01 18:00:00 36.2 10 Sur 33 Sudeste 0 -- -- 30
2020-07-01 17:00:00 37.6 14 Sur 31 Sur 0 -- -- 29
2020-07-01 16:00:00 38.3 11 Sudeste 26 Sudeste 0 -- -- 28
2020-07-01 15:00:00 37.8 12 Sudeste 23 Sudeste 0 -- -- 27
2020-07-01 14:00:00 36.3 6 Este 21 Este 0 -- -- 27
2020-07-01 13:00:00 34.2 8 Sudeste 18 Este 0 -- -- 33
2020-07-01 12:00:00 31.7 4 Este 13 Sudeste 0 -- -- 39
2020-07-01 11:00:00 28.8 5 Sudeste 12 Este 0 -- -- 43
2020-07-01 10:00:00 25 2 Sur 6 Sudoeste 0 -- -- 52
2020-07-01 09:00:00 21.2 0 Calma 6 Sudoeste 0 -- -- 66
2020-07-01 08:00:00 18.8 4 Oeste 10 Oeste 0 -- -- 71
2020-07-01 07:00:00 18.3 5 Oeste 10 Oeste 0 -- -- 70
2020-07-01 06:00:00 19.3 6 Oeste 14 Oeste 0 -- -- 67
2020-07-01 05:00:00 19.3 10 Oeste 17 Oeste 0 -- -- 68
2020-07-01 04:00:00 19.8 3 Oeste 15 Oeste 0 -- -- 68
2020-07-01 03:00:00 20.1 10 Oeste 13 Oeste 0 -- -- 64
2020-07-01 02:00:00 21.3 8 Oeste 10 Oeste 0 -- -- 64
2020-07-01 01:00:00 22.8 3 Noroeste 4 Noroeste 0 -- -- 66
2020-07-01 00:00:00 24.1 2 Este 5 Sudeste 0 -- -- 61
2020-06-30 23:00:00 25.4 3 Este 10 Este 0 -- -- 57
2020-06-30 22:00:00 26.9 7 Este 19 Este 0 -- -- 49
2020-06-30 21:00:00 28.6 11 Este 23 Este 0 -- -- 38
2020-06-30 20:00:00 30.2 15 Este 27 Este 0 -- -- 36
2020-06-30 19:00:00 31.3 18 Este 34 Este 0 -- -- 30
2020-06-30 18:00:00 32.4 19 Este 33 Este 0 -- -- 27
2020-06-30 17:00:00 33.3 16 Este 30 Este 0 -- -- 29
2020-06-30 16:00:00 32.1 15 Este 32 Este 0 -- -- 33
2020-06-30 15:00:00 33.1 15 Este 30 Este 0 -- -- 32
2020-06-30 14:00:00 31.8 13 Este 25 Este 0 -- -- 36
2020-06-30 13:00:00 30.3 10 Este 20 Este 0 -- -- 42
2020-06-30 12:00:00 28.6 8 Sudeste 16 Sudeste 0 -- -- 44
2020-06-30 11:00:00 26.1 4 Este 12 Nordeste 0 -- -- 55
2020-06-30 10:00:00 23.2 3 Nordeste 7 Norte 0 -- -- 68
2020-06-30 09:00:00 20 3 Oeste 7 Sudoeste 0 -- -- 69
2020-06-30 08:00:00 17.8 3 Oeste 9 Oeste 0 -- -- 67
2020-06-30 07:00:00 17.6 9 Sudoeste 12 Sudoeste 0 -- -- 64
2020-06-30 06:00:00 18.1 3 Oeste 12 Oeste 0 -- -- 62
2020-06-30 05:00:00 18.5 6 Oeste 16 Oeste 0 -- -- 61
2020-06-30 04:00:00 19 13 Sudoeste 17 Sudoeste 0 -- -- 60
2020-06-30 03:00:00 20.5 9 Oeste 11 Oeste 0 -- -- 58
2020-06-30 02:00:00 22.2 5 Oeste 7 Sudoeste 0 -- -- 51
2020-06-30 01:00:00 23.1 3 Nordeste 9 Este 0 -- -- 46
2020-06-30 00:00:00 24.8 6 Nordeste 9 Este 0 -- -- 46
2020-06-29 23:00:00 26.2 3 Este 13 Este 0 -- -- 42
2020-06-29 22:00:00 27.9 10 Este 23 Este 0 -- -- 36
2020-06-29 21:00:00 29.8 14 Este 27 Este 0 -- -- 33
2020-06-29 20:00:00 31.6 17 Este 30 Este 0 -- -- 33
2020-06-29 19:00:00 32.4 21 Este 33 Este 0 -- -- 32
2020-06-29 18:00:00 33 18 Este 41 Este 0 -- -- 36
2020-06-29 17:00:00 33.2 23 Este 38 Este 0 -- -- 39
2020-06-29 16:00:00 33.5 19 Este 39 Este 0 -- -- 38
2020-06-29 15:00:00 33.5 19 Este 39 Este 0 -- -- 39
2020-06-29 14:00:00 32.7 17 Este 35 Este 0 -- -- 40
2020-06-29 13:00:00 32 13 Este 28 Este 0 -- -- 38
2020-06-29 12:00:00 30.5 14 Este 23 Nordeste 0 -- -- 35
2020-06-29 11:00:00 28.5 8 Sudeste 15 Este 0 -- -- 39
2020-06-29 10:00:00 25 2 Sur 11 Oeste 0 -- -- 47
2020-06-29 09:00:00 21.2 5 Oeste 14 Oeste 0 -- -- 62
2020-06-29 08:00:00 17.9 11 Oeste 15 Oeste 0 -- -- 71
2020-06-29 07:00:00 17.3 9 Sudoeste 16 Oeste 0 -- -- 74
2020-06-29 06:00:00 17.7 6 Oeste 12 Oeste 0 -- -- 74
2020-06-29 05:00:00 18.6 5 Oeste 14 Sudoeste 0 -- -- 71
2020-06-29 04:00:00 19.3 9 Oeste 13 Oeste 0 -- -- 70
2020-06-29 03:00:00 20.8 9 Sudoeste 13 Sudoeste 0 -- -- 64
2020-06-29 02:00:00 22.3 0 Calma 5 Sudeste 0 -- -- 63
2020-06-29 01:00:00 23.4 2 Este 9 Nordeste 0 -- -- 59
2020-06-29 00:00:00 24.3 6 Este 14 Este 0 -- -- 59
2020-06-28 23:00:00 25.6 7 Este 15 Este 0 -- -- 51
2020-06-28 22:00:00 27.5 9 Este 18 Este 0 -- -- 48
2020-06-28 21:00:00 29.7 9 Sudeste 22 Sudeste 0 -- -- 38
2020-06-28 20:00:00 31.3 10 Sudeste 23 Sudeste 0 -- -- 37
2020-06-28 19:00:00 32.6 14 Sur 26 Sudeste 0 -- -- 35
2020-06-28 18:00:00 33.7 11 Sudeste 33 Este 0 -- -- 37
2020-06-28 17:00:00 33.3 20 Este 33 Este 0 -- -- 38
2020-06-28 16:00:00 34.4 12 Sudeste 36 Este 0 -- -- 36
2020-06-28 15:00:00 33.8 10 Este 26 Este 0 -- -- 33
2020-06-28 14:00:00 32.6 13 Sudeste 30 Este 0 -- -- 36
2020-06-28 13:00:00 31.1 11 Este 22 Este 0 -- -- 35
2020-06-28 12:00:00 29.2 9 Este 21 Este 0 -- -- 39
2020-06-28 11:00:00 27.2 9 Este 15 Este 0 -- -- 48
2020-06-28 10:00:00 24.7 6 Nordeste 10 Este 0 -- -- 56
2020-06-28 09:00:00 21 3 Sudoeste 12 Oeste 0 -- -- 56
2020-06-28 08:00:00 18.3 8 Oeste 15 Oeste 0 -- -- 68
2020-06-28 07:00:00 17.7 10 Oeste 15 Oeste 0 -- -- 73
2020-06-28 06:00:00 17.9 12 Sudoeste 15 Oeste 0 -- -- 77
2020-06-28 05:00:00 18.9 10 Oeste 14 Sudoeste 0 -- -- 76
2020-06-28 04:00:00 19.8 9 Oeste 15 Oeste 0 -- -- 73
2020-06-28 03:00:00 20.3 8 Oeste 13 Oeste 0 -- -- 72
2020-06-28 02:00:00 22 4 Sudoeste 7 Oeste 0 -- -- 68
2020-06-28 01:00:00 23 0 Calma 6 Este 0 -- -- 63
2020-06-28 00:00:00 23.7 6 Este 12 Este 0 -- -- 63
2020-06-27 23:00:00 24.6 8 Este 18 Este 0 -- -- 60
2020-06-27 22:00:00 26.2 10 Este 19 Este 0 -- -- 56
2020-06-27 21:00:00 29.5 11 Este 24 Sudeste 0 -- -- 49
2020-06-27 20:00:00 31.2 10 Sudeste 27 Sudeste 0 -- -- 30
2020-06-27 19:00:00 32.5 10 Sur 30 Sudeste 0 -- -- 28
2020-06-27 18:00:00 33.9 10 Sur 30 Sudeste 0 -- -- 25
2020-06-27 17:00:00 34.7 12 Sur 26 Sur 0 -- -- 26
2020-06-27 16:00:00 35.6 10 Sur 24 Noroeste 0 -- -- 25
2020-06-27 15:00:00 35.3 6 Este 19 Sudeste 0 -- -- 23
2020-06-27 14:00:00 35 6 Sudeste 23 Sur 0 -- -- 24
2020-06-27 13:00:00 33.2 10 Sudeste 17 Este 0 -- -- 24
2020-06-27 12:00:00 31.9 8 Este 19 Noroeste 0 -- -- 27
2020-06-27 11:00:00 28.6 14 Noroeste 21 Noroeste 0 -- -- 32
2020-06-27 10:00:00 26.4 10 Oeste 19 Oeste 0 -- -- 43
2020-06-27 09:00:00 22.7 9 Oeste 21 Oeste 0 -- -- 60
2020-06-27 08:00:00 20.3 13 Oeste 22 Sudoeste 0 -- -- 67
2020-06-27 07:00:00 19.8 13 Oeste 22 Sudoeste 0 -- -- 71
2020-06-27 06:00:00 19.9 12 Oeste 19 Sudoeste 0 -- -- 78
2020-06-27 05:00:00 20 12 Oeste 22 Oeste 0 -- -- 83
2020-06-27 04:00:00 20.4 6 Oeste 15 Sudoeste 0 -- -- 83
2020-06-27 03:00:00 21.8 4 Oeste 6 Oeste 0 -- -- 80
2020-06-27 02:00:00 22.4 0 Calma 5 Nordeste 0 -- -- 77
2020-06-27 01:00:00 22.7 3 Nordeste 12 Nordeste 0 -- -- 78
2020-06-27 00:00:00 23.8 6 Este 13 Este 0 -- -- 74
2020-06-26 23:00:00 24.9 8 Este 19 Este 0 -- -- 68
2020-06-26 22:00:00 26 12 Este 20 Este 0 -- -- 62
2020-06-26 21:00:00 27.4 12 Este 28 Este 0 -- -- 55
2020-06-26 20:00:00 28.8 19 Este 28 Nordeste 0 -- -- 47
2020-06-26 19:00:00 30.5 17 Este 34 Este 0 -- -- 41
2020-06-26 18:00:00 31.4 18 Este 38 Sudeste 0 -- -- 39
2020-06-26 17:00:00 32.1 15 Este 40 Este 0 -- -- 38
2020-06-26 16:00:00 32.8 15 Este 28 Este 0 -- -- 35
2020-06-26 15:00:00 32.2 10 Sudeste 28 Este 0 -- -- 36
2020-06-26 14:00:00 31.1 11 Este 21 Este 0 -- -- 37
2020-06-26 13:00:00 29.3 8 Este 18 Sudeste 0 -- -- 40
2020-06-26 12:00:00 28.2 9 Este 21 Este 0 -- -- 45
2020-06-26 11:00:00 26.6 2 Nordeste 11 Este 0 -- -- 49
2020-06-26 10:00:00 23.8 4 Nordeste 10 Este 0 -- -- 57
2020-06-26 09:00:00 20.5 0 Calma 5 Sudoeste 0 -- -- 67
2020-06-26 08:00:00 18.5 4 Oeste 13 Oeste 0 -- -- 67
2020-06-26 07:00:00 18 9 Oeste 16 Oeste 0 -- -- 70
2020-06-26 06:00:00 18.5 7 Oeste 14 Oeste 0 -- -- 68
2020-06-26 05:00:00 18.5 6 Oeste 17 Sudoeste 0 -- -- 70
2020-06-26 04:00:00 18.8 10 Oeste 16 Oeste 0 -- -- 70
2020-06-26 03:00:00 19.6 9 Oeste 14 Oeste 0 -- -- 68
2020-06-26 02:00:00 20.6 8 Oeste 10 Sudoeste 0 -- -- 68
2020-06-26 01:00:00 21.8 5 Noroeste 7 Noroeste 0 -- -- 64
2020-06-26 00:00:00 23.3 0 Calma 7 Este 0 -- -- 57
2020-06-25 23:00:00 24.6 2 Este 12 Sudeste 0 -- -- 48
2020-06-25 22:00:00 26.1 8 Sudeste 15 Este 0 -- -- 45
2020-06-25 21:00:00 28.1 8 Este 25 Este 0 -- -- 35
2020-06-25 20:00:00 29.7 14 Sudeste 27 Este 0 -- -- 29
2020-06-25 19:00:00 30.8 15 Este 30 Este 0 -- -- 28
2020-06-25 18:00:00 31.8 17 Este 29 Este 0 -- -- 28
2020-06-25 17:00:00 32.3 17 Este 33 Este 0 -- -- 27
2020-06-25 16:00:00 32.5 17 Este 33 Este 0 -- -- 29
2020-06-25 15:00:00 32.8 17 Este 31 Este 0 -- -- 28
2020-06-25 14:00:00 31.6 13 Este 27 Sudeste 0 -- -- 31
2020-06-25 13:00:00 30.9 13 Sudeste 23 Sudeste 0 -- -- 34
2020-06-25 12:00:00 29.6 10 Sudeste 21 Este 0 -- -- 36
2020-06-25 11:00:00 28.1 6 Este 16 Este 0 -- -- 38
2020-06-25 10:00:00 24.8 5 Oeste 17 Oeste 0 -- -- 46
2020-06-25 09:00:00 21.2 10 Oeste 18 Oeste 0 -- -- 54
2020-06-25 08:00:00 18.1 12 Oeste 19 Oeste 0 -- -- 60
2020-06-25 07:00:00 17.1 12 Oeste 21 Oeste 0 -- -- 61
2020-06-25 06:00:00 16.9 14 Oeste 20 Oeste 0 -- -- 61
2020-06-25 05:00:00 17.3 13 Oeste 21 Oeste 0 -- -- 59
2020-06-25 04:00:00 17.5 14 Oeste 19 Oeste 0 -- -- 58
2020-06-25 03:00:00 18 13 Oeste 17 Oeste 0 -- -- 60
2020-06-25 02:00:00 19.4 8 Oeste 12 Oeste 0 -- -- 62
2020-06-25 01:00:00 20.9 2 Sudoeste 5 Noroeste 0 -- -- 57
2020-06-25 00:00:00 21.8 4 Noroeste 6 Noroeste 0 -- -- 54
2020-06-24 23:00:00 23.5 2 Este 13 Este 0 -- -- 49
2020-06-24 22:00:00 25 8 Este 28 Este 0 -- -- 45
2020-06-24 21:00:00 26.6 16 Este 25 Este 0 -- -- 44
2020-06-24 20:00:00 28.4 11 Este 19 Este 0 -- -- 42
2020-06-24 19:00:00 29.5 10 Este 26 Sudeste 0 -- -- 36
2020-06-24 18:00:00 31 9 Este 22 Este 0 -- -- 31
2020-06-24 17:00:00 31 10 Este 21 Nordeste 0 -- -- 35
2020-06-24 16:00:00 30.4 8 Nordeste 20 Este 0 -- -- 35
2020-06-24 15:00:00 29.1 10 Este 20 Este 0 -- -- 38
2020-06-24 14:00:00 26.6 12 Este 21 Nordeste 0 -- -- 46
2020-06-24 13:00:00 24.4 9 Sudeste 29 Nordeste 0 -- -- 53
2020-06-24 12:00:00 23.6 8 Este 15 Nordeste 0 -- -- 53
2020-06-24 11:00:00 23.2 6 Nordeste 11 Nordeste 0 -- -- 56
2020-06-24 10:00:00 22.9 3 Este 13 Sudoeste 0 -- -- 56
2020-06-24 09:00:00 21 8 Oeste 19 Oeste 0 -- -- 66
2020-06-24 08:00:00 17.8 12 Oeste 17 Oeste 0 -- -- 76
2020-06-24 07:00:00 16.7 6 Oeste 19 Oeste 0 -- -- 79
2020-06-24 06:00:00 16.7 13 Oeste 21 Sudoeste 0 -- -- 78
2020-06-24 05:00:00 17.5 5 Oeste 14 Oeste 0 -- -- 76
2020-06-24 04:00:00 18 10 Oeste 15 Sudoeste 0 -- -- 76
2020-06-24 03:00:00 18.7 6 Oeste 13 Oeste 0 -- -- 75
2020-06-24 02:00:00 19.7 4 Noroeste 5 Noroeste 0 -- -- 72
2020-06-24 01:00:00 20.8 2 Norte 4 Norte 0 -- -- 69
2020-06-24 00:00:00 21.8 0 Calma 7 Sudeste 0 -- -- 65
2020-06-23 23:00:00 22.9 5 Sudeste 14 Este 0 -- -- 63
2020-06-23 22:00:00 24.1 6 Este 18 Este 0 -- -- 57
2020-06-23 21:00:00 25.5 9 Este 27 Este 0 -- -- 53
2020-06-23 20:00:00 27.1 15 Este 27 Este 0 -- -- 46
2020-06-23 19:00:00 28.3 17 Este 30 Este 0 -- -- 41
2020-06-23 18:00:00 29.3 17 Este 34 Este 0 -- -- 39
2020-06-23 17:00:00 30.2 16 Este 31 Este 0 -- -- 37
2020-06-23 16:00:00 30.8 15 Este 33 Este 0 -- -- 36
2020-06-23 15:00:00 30.6 16 Este 30 Este 0 -- -- 36
2020-06-23 14:00:00 30.4 13 Este 30 Sudeste 0 -- -- 37
2020-06-23 13:00:00 28.8 11 Este 26 Este 0 -- -- 41
2020-06-23 12:00:00 27.1 11 Este 21 Este 0 -- -- 45
2020-06-23 11:00:00 25.5 8 Este 14 Este 0 -- -- 51
2020-06-23 10:00:00 23 3 Este 12 Oeste 0 -- -- 61
2020-06-23 09:00:00 20.1 6 Oeste 14 Oeste 0 -- -- 78
2020-06-23 08:00:00 17.3 10 Sudoeste 17 Oeste 0 -- -- 85
2020-06-23 07:00:00 16.6 10 Oeste 17 Oeste 0 -- -- 85
2020-06-23 06:00:00 16.9 9 Oeste 17 Oeste 0 -- -- 84
2020-06-23 05:00:00 17.3 10 Oeste 15 Oeste 0 -- -- 83
2020-06-23 04:00:00 17.7 11 Oeste 14 Sudoeste 0 -- -- 81
2020-06-23 03:00:00 19 6 Sudoeste 9 Sudoeste 0 -- -- 77
2020-06-23 02:00:00 19.8 4 Noroeste 4 Noroeste 0 -- -- 74
2020-06-23 01:00:00 20.6 0 Calma 5 Este 0 -- -- 71
2020-06-23 00:00:00 21.6 2 Nordeste 13 Este 0 -- -- 66
2020-06-22 23:00:00 22.6 8 Este 21 Este 0 -- -- 64
2020-06-22 22:00:00 23.7 10 Este 27 Este 0 -- -- 59
2020-06-22 21:00:00 25.3 16 Este 30 Sudeste 0 -- -- 49
2020-06-22 20:00:00 27.1 17 Este 33 Este 0 -- -- 43
2020-06-22 19:00:00 28.7 15 Este 36 Este 0 -- -- 39
2020-06-22 18:00:00 29.8 17 Este 36 Este 0 -- -- 35
2020-06-22 17:00:00 30.8 19 Este 41 Este 0 -- -- 32
2020-06-22 16:00:00 31.2 20 Este 37 Este 0 -- -- 32
2020-06-22 15:00:00 31.3 15 Este 30 Este 0 -- -- 37
2020-06-22 14:00:00 30.8 16 Este 30 Este 0 -- -- 41
2020-06-22 13:00:00 29.7 14 Este 28 Este 0 -- -- 40
2020-06-22 12:00:00 28 12 Este 21 Este 0 -- -- 40
2020-06-22 11:00:00 26.3 8 Sudeste 19 Este 0 -- -- 47
2020-06-22 10:00:00 23.4 3 Nordeste 10 Este 0 -- -- 59
2020-06-22 09:00:00 20.5 0 Calma 9 Oeste 0 -- -- 68
2020-06-22 08:00:00 18.3 6 Oeste 17 Oeste 0 -- -- 76
2020-06-22 07:00:00 17.5 13 Oeste 18 Oeste 0 -- -- 82
2020-06-22 06:00:00 17.7 11 Oeste 15 Oeste 0 -- -- 81
2020-06-22 05:00:00 18.2 8 Oeste 11 Oeste 0 -- -- 78
2020-06-22 04:00:00 19.6 6 Oeste 8 Oeste 0 -- -- 75
2020-06-22 03:00:00 20.8 0 Calma 5 Nordeste 0 -- -- 72
2020-06-22 02:00:00 21.6 2 Norte 6 Nordeste 0 -- -- 67
2020-06-22 01:00:00 23 2 Sudoeste 3 Sudoeste 0 -- -- 61
2020-06-22 00:00:00 23.8 0 Calma 5 Sudeste 0 -- -- 57
2020-06-21 23:00:00 25 2 Sudeste 7 Nordeste 0 -- -- 55
2020-06-21 22:00:00 25.9 7 Este 20 Nordeste 0 -- -- 53
2020-06-21 21:00:00 27.3 12 Nordeste 28 Este 0 -- -- 46
2020-06-21 20:00:00 29.3 18 Nordeste 30 Nordeste 0 -- -- 44
2020-06-21 19:00:00 31.4 17 Este 30 Este 0 -- -- 40
2020-06-21 18:00:00 33.5 13 Este 34 Este 0 -- -- 37
2020-06-21 17:00:00 34.5 16 Este 30 Este 0 -- -- 35
2020-06-21 16:00:00 34.8 16 Este 30 Este 0 -- -- 32
2020-06-21 15:00:00 34.8 12 Este 27 Este 0 -- -- 28
2020-06-21 14:00:00 34.3 12 Este 26 Este 0 -- -- 30
2020-06-21 13:00:00 34 10 Este 22 Sudeste 0 -- -- 26
2020-06-21 12:00:00 33.3 5 Sur 17 Oeste 0 -- -- 25
2020-06-21 11:00:00 30.2 9 Oeste 20 Oeste 0 -- -- 31
2020-06-21 10:00:00 27 11 Oeste 20 Sudoeste 0 -- -- 36
2020-06-21 09:00:00 22.8 11 Oeste 22 Oeste 0 -- -- 53
2020-06-21 08:00:00 18.8 13 Sudoeste 18 Sudoeste 0 -- -- 62
2020-06-21 07:00:00 18.1 12 Oeste 15 Sudoeste 0 -- -- 64
2020-06-21 06:00:00 18.1 10 Oeste 18 Oeste 0 -- -- 71
2020-06-21 05:00:00 18.4 12 Oeste 19 Oeste 0 -- -- 77
2020-06-21 04:00:00 18.9 8 Oeste 15 Oeste 0 -- -- 78
2020-06-21 03:00:00 19.5 10 Oeste 15 Oeste 0 -- -- 77
2020-06-21 02:00:00 20.8 6 Oeste 9 Oeste 0 -- -- 75
2020-06-21 01:00:00 22.1 2 Sur 9 Nordeste 0 -- -- 69
2020-06-21 00:00:00 22.6 5 Este 14 Nordeste 0 -- -- 65
2020-06-20 23:00:00 24 7 Nordeste 14 Nordeste 0 -- -- 62
2020-06-20 22:00:00 26.7 11 Este 18 Este 0 -- -- 41
2020-06-20 21:00:00 28.5 12 Sudeste 22 Sudeste 0 -- -- 33
2020-06-20 20:00:00 30.5 8 Sur 25 Sur 0 -- -- 32
2020-06-20 19:00:00 32 9 Sur 25 Sudeste 0 -- -- 32
2020-06-20 18:00:00 32.7 11 Sudeste 27 Sudeste 0 -- -- 36
2020-06-20 17:00:00 33.5 9 Sur 28 Este 0 -- -- 35
2020-06-20 16:00:00 33 13 Este 28 Este 0 -- -- 32
2020-06-20 15:00:00 32.1 13 Este 26 Este 0 -- -- 33
2020-06-20 14:00:00 30.4 11 Este 24 Este 0 -- -- 37
2020-06-20 13:00:00 29 10 Este 19 Este 0 -- -- 43
2020-06-20 12:00:00 27.2 7 Este 15 Este 0 -- -- 51
2020-06-20 11:00:00 24.9 6 Este 14 Este 0 -- -- 54
2020-06-20 10:00:00 21.9 2 Nordeste 7 Nordeste 0 -- -- 64
2020-06-20 09:00:00 19.1 3 Oeste 11 Oeste 0 -- -- 76
2020-06-20 08:00:00 16.5 8 Oeste 12 Sudoeste 0 -- -- 85
2020-06-20 07:00:00 15.8 8 Sudoeste 11 Oeste 0 -- -- 84
2020-06-20 06:00:00 16.5 5 Oeste 13 Oeste 0 -- -- 82
2020-06-20 05:00:00 16.9 9 Oeste 13 Oeste 0 -- -- 81
2020-06-20 04:00:00 17.5 8 Oeste 11 Oeste 0 -- -- 80
2020-06-20 03:00:00 18.4 0 Calma 4 Norte 0 -- -- 77
2020-06-20 02:00:00 18.9 3 Nordeste 8 Este 0 -- -- 73
2020-06-20 01:00:00 19.7 5 Este 8 Nordeste 0 -- -- 70
2020-06-20 00:00:00 20.8 4 Este 11 Este 0 -- -- 64
2020-06-19 23:00:00 22 5 Sudeste 13 Sur 0 -- -- 59
2020-06-19 22:00:00 22.7 5 Sudeste 19 Sudeste 0 -- -- 60
2020-06-19 21:00:00 24.1 8 Sur 22 Sudeste 0 -- -- 59
2020-06-19 20:00:00 25.5 8 Sur 23 Sur 0 -- -- 55
2020-06-19 19:00:00 26.4 9 Sur 24 Sur 0 -- -- 55
2020-06-19 18:00:00 27.9 14 Sur 28 Sudeste 0 -- -- 51
2020-06-19 17:00:00 29.1 14 Sudeste 30 Sudeste 0 -- -- 47
2020-06-19 16:00:00 29.2 12 Sudeste 27 Sudeste 0 -- -- 44
2020-06-19 15:00:00 28.9 10 Sudeste 23 Este 0 -- -- 44
2020-06-19 14:00:00 28.3 7 Sudeste 25 Sudeste 0 -- -- 47
2020-06-19 13:00:00 27.1 8 Este 20 Sudeste 0 -- -- 51
2020-06-19 12:00:00 25.7 3 Nordeste 15 Sudeste 0 -- -- 55
2020-06-19 11:00:00 24.3 9 Este 21 Sudeste 0 -- -- 64
2020-06-19 10:00:00 21.9 7 Sudeste 12 Este 0 -- -- 75
2020-06-19 09:00:00 21 4 Este 8 Sudoeste 0 -- -- 82
2020-06-19 08:00:00 20 3 Sudoeste 6 Sudeste 0 -- -- 86
2020-06-19 07:00:00 19.7 0 Calma 11 Este 0 -- -- 87
2020-06-19 06:00:00 19.6 6 Nordeste 11 Este 0 -- -- 85
2020-06-19 05:00:00 19.7 2 Nordeste 9 Nordeste 0 -- -- 84
2020-06-19 04:00:00 20 0 Calma 8 Este 0 -- -- 83
2020-06-19 03:00:00 20.3 3 Este 14 Este 0 -- -- 82
2020-06-19 02:00:00 20.6 7 Este 17 Este 0 -- -- 81
2020-06-19 01:00:00 20.8 8 Este 23 Sudeste 0 -- -- 79
2020-06-19 00:00:00 21.2 9 Sudeste 17 Sudeste 0 -- -- 75
2020-06-18 23:00:00 21.5 6 Este 17 Este 0 -- -- 72
2020-06-18 22:00:00 22 9 Este 24 Este 0 -- -- 70
2020-06-18 21:00:00 22.7 13 Este 29 Este 0 -- -- 67
2020-06-18 20:00:00 24.2 16 Este 36 Este 0 -- -- 62
2020-06-18 19:00:00 25.3 18 Este 39 Este 0 -- -- 60
2020-06-18 18:00:00 27.2 20 Este 36 Este 0 -- -- 51
2020-06-18 17:00:00 29 19 Este 34 Este 0 -- -- 46
2020-06-18 16:00:00 30.2 10 Sudeste 26 Sudeste 0 -- -- 38
2020-06-18 15:00:00 29 12 Sudeste 25 Este 0 -- -- 43
2020-06-18 14:00:00 28.5 9 Sudeste 30 Sudeste 0 -- -- 44
2020-06-18 13:00:00 26.7 6 Nordeste 21 Este 0 -- -- 51
2020-06-18 12:00:00 25.3 4 Sudeste 17 Sudeste 0 -- -- 57
2020-06-18 11:00:00 23.8 7 Este 15 Este 0 -- -- 63
2020-06-18 10:00:00 22.1 5 Este 12 Nordeste 0 -- -- 71
2020-06-18 09:00:00 20.5 3 Sur 8 Sudeste 0 -- -- 80
2020-06-18 08:00:00 19.5 3 Sudoeste 5 Sudeste 0 -- -- 88
2020-06-18 07:00:00 19 3 Este 5 Este 0 -- -- 90
2020-06-18 06:00:00 18.9 0 Calma 5 Norte 0 -- -- 89
2020-06-18 05:00:00 18.8 0 Calma 3 Noroeste 0 -- -- 88
2020-06-18 04:00:00 18.9 0 Calma 5 Nordeste 0 -- -- 87
2020-06-18 03:00:00 18.9 3 Nordeste 8 Norte 0 -- -- 87
2020-06-18 02:00:00 19.4 4 Nordeste 9 Nordeste 0 -- -- 87
2020-06-18 01:00:00 19.6 2 Este 9 Este 0 -- -- 87
2020-06-18 00:00:00 19.5 6 Este 16 Nordeste 0 -- -- 86
2020-06-17 23:00:00 20.2 7 Este 22 Este 0 -- -- 81
2020-06-17 22:00:00 21.6 12 Nordeste 23 Nordeste 0 -- -- 76
2020-06-17 21:00:00 23.9 12 Nordeste 26 Nordeste 0 -- -- 63
2020-06-17 20:00:00 26 6 Sudeste 21 Sudeste 0 -- -- 46
2020-06-17 19:00:00 26.5 9 Sur 26 Sudeste 0 -- -- 44
2020-06-17 18:00:00 26.1 10 Sur 30 Sudeste 0 -- -- 45
2020-06-17 17:00:00 25.2 10 Sudeste 32 Sudeste 1.6 -- -- 56
2020-06-17 16:00:00 22.9 9 Sudeste 28 Sudeste 1.8 -- -- 66
2020-06-17 15:00:00 28 17 Sudeste 36 Sudeste 0 -- -- 45
2020-06-17 14:00:00 29.7 11 Sur 24 Sudeste 0 -- -- 39
2020-06-17 13:00:00 28.2 15 Este 31 Sudeste 0 -- -- 38
2020-06-17 12:00:00 27.3 8 Sudeste 19 Este 0 -- -- 40
2020-06-17 11:00:00 25.3 8 Sudeste 17 Este 0 -- -- 44
2020-06-17 10:00:00 22.4 5 Sudeste 11 Sudeste 0 -- -- 56
2020-06-17 09:00:00 19.3 2 Sudoeste 7 Oeste 0 -- -- 68
2020-06-17 08:00:00 16.7 3 Oeste 7 Noroeste 0 -- -- 74
2020-06-17 07:00:00 16 0 Calma 11 Noroeste 0 -- -- 76
2020-06-17 06:00:00 16.4 4 Oeste 8 Oeste 0 -- -- 76
2020-06-17 05:00:00 16.6 4 Oeste 10 Sudoeste 0 -- -- 76
2020-06-17 04:00:00 16.8 9 Oeste 14 Oeste 0 -- -- 76
2020-06-17 03:00:00 17.6 11 Oeste 13 Sudoeste 0 -- -- 72
2020-06-17 02:00:00 18.8 2 Norte 6 Noroeste 0 -- -- 69
2020-06-17 01:00:00 20 0 Calma 7 Este 0 -- -- 65
2020-06-17 00:00:00 20.7 4 Nordeste 15 Este 0 -- -- 61
2020-06-16 23:00:00 21.9 10 Nordeste 19 Este 0 -- -- 57
2020-06-16 22:00:00 24.3 7 Este 14 Este 0 -- -- 47
2020-06-16 21:00:00 26.4 9 Este 17 Este 0 -- -- 43
2020-06-16 20:00:00 27.5 9 Sudeste 25 Sur 0 -- -- 31
2020-06-16 19:00:00 29.1 13 Sur 32 Sur 0 -- -- 29
2020-06-16 18:00:00 30.1 12 Sur 34 Sudoeste 0 -- -- 28
2020-06-16 17:00:00 31.8 12 Sur 25 Sur 0 -- -- 28
2020-06-16 16:00:00 32 12 Sudeste 23 Este 0 -- -- 29
2020-06-16 15:00:00 32.8 5 Noroeste 18 Este 0 -- -- 26
2020-06-16 14:00:00 31.6 7 Noroeste 24 Norte 0 -- -- 27
2020-06-16 13:00:00 30.8 13 Norte 26 Noroeste 0 -- -- 29
2020-06-16 12:00:00 28.7 16 Norte 36 Norte 0 -- -- 31
2020-06-16 11:00:00 27.6 22 Norte 38 Norte 0 -- -- 33
2020-06-16 10:00:00 25.6 23 Noroeste 37 Noroeste 0 -- -- 36
2020-06-16 09:00:00 23.5 14 Oeste 26 Noroeste 0 -- -- 41
2020-06-16 08:00:00 20.6 9 Oeste 17 Oeste 0 -- -- 48
2020-06-16 07:00:00 19.3 11 Oeste 21 Oeste 0 -- -- 49
2020-06-16 06:00:00 18.5 15 Oeste 24 Oeste 0 -- -- 51
2020-06-16 05:00:00 17.9 15 Oeste 23 Oeste 0 -- -- 52
2020-06-16 04:00:00 17.3 9 Oeste 16 Oeste 0 -- -- 55
2020-06-16 03:00:00 17.6 12 Oeste 16 Oeste 0 -- -- 56
2020-06-16 02:00:00 18.7 8 Oeste 13 Oeste 0 -- -- 52
2020-06-16 01:00:00 20 6 Oeste 10 Sudoeste 0 -- -- 49
2020-06-16 00:00:00 21.6 3 Sur 8 Este 0 -- -- 44
2020-06-15 23:00:00 22.9 2 Este 10 Sur 0 -- -- 39
2020-06-15 22:00:00 24.6 2 Nordeste 21 Sudeste 0 -- -- 36
2020-06-15 21:00:00 26.7 9 Sudeste 25 Sudeste 0 -- -- 32
2020-06-15 20:00:00 28.7 11 Sur 28 Sur 0 -- -- 27
2020-06-15 19:00:00 29.9 14 Sur 36 Sur 0 -- -- 26
2020-06-15 18:00:00 31.4 14 Sur 36 Sudeste 0 -- -- 26
2020-06-15 17:00:00 32.7 15 Sur 31 Sur 0 -- -- 25
2020-06-15 16:00:00 33.3 8 Sur 21 Sur 0 -- -- 24
2020-06-15 15:00:00 32.7 11 Sur 29 Sudoeste 0 -- -- 24
2020-06-15 14:00:00 32.1 9 Sur 15 Sur 0 -- -- 25
2020-06-15 13:00:00 30.6 6 Oeste 17 Oeste 0 -- -- 27
2020-06-15 12:00:00 28.9 7 Noroeste 28 Norte 0 -- -- 29
2020-06-15 11:00:00 26.6 22 Noroeste 32 Norte 0 -- -- 30
2020-06-15 10:00:00 24.3 12 Noroeste 25 Noroeste 0 -- -- 37
2020-06-15 09:00:00 21.9 12 Oeste 20 Noroeste 0 -- -- 46
2020-06-15 08:00:00 19 13 Oeste 24 Oeste 0 -- -- 52
2020-06-15 07:00:00 17.8 15 Oeste 27 Oeste 0 -- -- 55
2020-06-15 06:00:00 17.7 12 Oeste 24 Oeste 0 -- -- 55
2020-06-15 05:00:00 17.1 12 Oeste 19 Oeste 0 -- -- 60
2020-06-15 04:00:00 16.7 10 Oeste 18 Oeste 0 -- -- 65
2020-06-15 03:00:00 17.1 12 Oeste 18 Oeste 0 -- -- 66
2020-06-15 02:00:00 17.6 10 Oeste 15 Sudoeste 0 -- -- 67
2020-06-15 01:00:00 19.6 2 Noroeste 5 Sur 0 -- -- 60
2020-06-15 00:00:00 20.8 0 Calma 13 Este 0 -- -- 57
2020-06-14 23:00:00 21.7 5 Este 12 Nordeste 0 -- -- 52
2020-06-14 22:00:00 24 4 Sudeste 18 Sur 0 -- -- 37
2020-06-14 21:00:00 25.5 9 Sur 23 Sur 0 -- -- 32
2020-06-14 20:00:00 27.2 9 Sur 21 Sur 0 -- -- 34
2020-06-14 19:00:00 28 10 Sur 30 Sudeste 0 -- -- 34
2020-06-14 18:00:00 29.8 14 Sur 33 Sudeste 0 -- -- 32
2020-06-14 17:00:00 30.7 9 Este 23 Sudeste 0 -- -- 24
2020-06-14 16:00:00 30.7 13 Este 24 Este 0 -- -- 25
2020-06-14 15:00:00 30.7 6 Sur 18 Sur 0 -- -- 24
2020-06-14 14:00:00 28.9 9 Este 18 Este 0 -- -- 27
2020-06-14 13:00:00 28 5 Noroeste 19 Noroeste 0 -- -- 28
2020-06-14 12:00:00 26 14 Noroeste 28 Norte 0 -- -- 33
2020-06-14 11:00:00 23.8 16 Noroeste 31 Noroeste 0 -- -- 37
2020-06-14 10:00:00 21.2 10 Oeste 20 Oeste 0 -- -- 43
2020-06-14 09:00:00 18.6 8 Oeste 18 Oeste 0 -- -- 52
2020-06-14 08:00:00 16.8 13 Oeste 21 Oeste 0 -- -- 59
2020-06-14 07:00:00 16.1 13 Oeste 20 Oeste 0 -- -- 58
2020-06-14 06:00:00 15.6 10 Oeste 19 Sudoeste 0 -- -- 60
2020-06-14 05:00:00 15 4 Oeste 18 Oeste 0 -- -- 62
2020-06-14 04:00:00 15.4 10 Oeste 15 Sudoeste 0 -- -- 62
2020-06-14 03:00:00 15.9 10 Oeste 16 Oeste 0 -- -- 60
2020-06-14 02:00:00 17.1 8 Oeste 13 Oeste 0 -- -- 57
2020-06-14 01:00:00 18 3 Noroeste 4 Noroeste 0 -- -- 55
2020-06-14 00:00:00 18.9 4 Este 8 Noroeste 0 -- -- 50
2020-06-13 23:00:00 19.8 4 Norte 7 Noroeste 0 -- -- 49
2020-06-13 22:00:00 21.9 0 Calma 19 Sur 0 -- -- 43
2020-06-13 21:00:00 23.2 13 Sur 36 Sur 0 -- -- 39
2020-06-13 20:00:00 25.1 15 Sur 37 Sur 0 -- -- 32
2020-06-13 19:00:00 26.6 17 Sur 36 Sur 0 -- -- 31
2020-06-13 18:00:00 27.8 15 Sur 33 Sudeste 0 -- -- 30
2020-06-13 17:00:00 28.4 13 Sur 27 Sur 0 -- -- 30
2020-06-13 16:00:00 29.5 9 Sur 32 Nordeste 0 -- -- 28
2020-06-13 15:00:00 28.6 7 Noroeste 22 Noroeste 0 -- -- 28
2020-06-13 14:00:00 26.8 6 Nordeste 19 Oeste 0 -- -- 30
2020-06-13 13:00:00 25.9 12 Noroeste 26 Norte 0 -- -- 32
2020-06-13 12:00:00 24.4 13 Norte 26 Noroeste 0 -- -- 36
2020-06-13 11:00:00 22.8 14 Noroeste 24 Norte 0 -- -- 40
2020-06-13 10:00:00 20.8 8 Norte 15 Noroeste 0 -- -- 46
2020-06-13 09:00:00 18.3 7 Noroeste 13 Oeste 0 -- -- 54
2020-06-13 08:00:00 15.9 6 Oeste 13 Oeste 0 -- -- 60
2020-06-13 07:00:00 15.7 10 Oeste 16 Noroeste 0 -- -- 56
2020-06-13 06:00:00 16.8 9 Noroeste 21 Noroeste 0 -- -- 53
2020-06-13 05:00:00 17.3 10 Noroeste 14 Oeste 0 -- -- 48
2020-06-13 04:00:00 18.4 6 Sudoeste 15 Oeste 0 -- -- 44
2020-06-13 03:00:00 19.4 12 Noroeste 18 Noroeste 0 -- -- 41
2020-06-13 02:00:00 20.3 8 Oeste 30 Noroeste 0 -- -- 38
2020-06-13 01:00:00 21.8 27 Oeste 46 Oeste 0 -- -- 34
2020-06-13 00:00:00 21.9 19 Noroeste 31 Oeste 0 -- -- 33
2020-06-12 23:00:00 22.3 10 Norte 28 Noroeste 0 -- -- 33
2020-06-12 22:00:00 23.4 15 Norte 28 Norte 0 -- -- 30
2020-06-12 21:00:00 24.3 14 Noroeste 25 Noroeste 0 -- -- 30
2020-06-12 20:00:00 26.4 10 Noroeste 24 Norte 0 -- -- 26
2020-06-12 19:00:00 28.4 12 Norte 27 Norte 0 -- -- 24
2020-06-12 18:00:00 28.8 15 Noroeste 36 Sudoeste 0 -- -- 24
2020-06-12 17:00:00 28.5 19 Sudoeste 43 Sudoeste 0 -- -- 26
2020-06-12 16:00:00 28.2 22 Sudoeste 40 Sudoeste 0 -- -- 28
2020-06-12 15:00:00 28.4 19 Oeste 42 Oeste 0 -- -- 30
2020-06-12 14:00:00 28.1 22 Sudoeste 38 Oeste 0 -- -- 31
2020-06-12 13:00:00 27.5 12 Sudoeste 30 Oeste 0 -- -- 35
2020-06-12 12:00:00 25.2 17 Oeste 29 Sur 0 -- -- 40
2020-06-12 11:00:00 24.6 18 Oeste 38 Sudoeste 0 -- -- 41
2020-06-12 10:00:00 22.9 19 Sudoeste 31 Oeste 0 -- -- 43
2020-06-12 09:00:00 21.2 12 Oeste 27 Oeste 0 -- -- 45
2020-06-12 08:00:00 18.8 9 Oeste 16 Oeste 0 -- -- 58
2020-06-12 07:00:00 18.7 12 Oeste 21 Sudoeste 0 -- -- 57
2020-06-12 06:00:00 19.1 12 Oeste 24 Oeste 0 -- -- 55
2020-06-12 05:00:00 19.6 10 Oeste 23 Sudoeste 0 -- -- 54
2020-06-12 04:00:00 20.3 7 Oeste 16 Sudoeste 0 -- -- 53
2020-06-12 03:00:00 21.6 9 Oeste 24 Oeste 0 -- -- 49
2020-06-12 02:00:00 22.3 13 Noroeste 49 Oeste 0 -- -- 46
2020-06-12 01:00:00 23 23 Oeste 37 Oeste 0 -- -- 42
2020-06-12 00:00:00 23.9 22 Oeste 38 Oeste 0 -- -- 37
2020-06-11 23:00:00 25.1 21 Noroeste 33 Noroeste 0 -- -- 35
2020-06-11 22:00:00 26.2 19 Noroeste 32 Oeste 0 -- -- 31
2020-06-11 21:00:00 28.3 17 Oeste 35 Oeste 0 -- -- 29
2020-06-11 20:00:00 30.2 20 Oeste 39 Oeste 0 -- -- 24
2020-06-11 19:00:00 30 6 Sudeste 18 Sudeste 0 -- -- 32
2020-06-11 18:00:00 30.6 12 Sudeste 24 Sudeste 0 -- -- 32
2020-06-11 17:00:00 30.1 13 Este 29 Sudeste 0 -- -- 35
2020-06-11 16:00:00 29.8 18 Sudeste 29 Sur 0 -- -- 35
2020-06-11 15:00:00 29.8 17 Sudeste 32 Sudeste 0 -- -- 36
2020-06-11 14:00:00 30.4 12 Sudeste 25 Sudeste 0 -- -- 35
2020-06-11 13:00:00 28.8 6 Este 24 Sudeste 0 -- -- 38
2020-06-11 12:00:00 27.4 6 Sudeste 18 Este 0 -- -- 38
2020-06-11 11:00:00 25.5 5 Sudeste 14 Este 0 -- -- 44
2020-06-11 10:00:00 22.6 5 Sudeste 9 Nordeste 0 -- -- 56
2020-06-11 09:00:00 17.8 3 Sudeste 6 Oeste 0 -- -- 78
2020-06-11 08:00:00 14.9 5 Oeste 10 Sudoeste 0 -- -- 91
2020-06-11 07:00:00 14.4 7 Oeste 10 Sudoeste 0 -- -- 90
2020-06-11 06:00:00 14.9 7 Oeste 10 Sudoeste 0 -- -- 89
2020-06-11 05:00:00 15.6 2 Oeste 12 Oeste 0 -- -- 88
2020-06-11 04:00:00 16.5 8 Oeste 12 Oeste 0 -- -- 87
2020-06-11 03:00:00 17.9 6 Oeste 10 Oeste 0 -- -- 82
2020-06-11 02:00:00 18.8 3 Oeste 7 Este 0 -- -- 80
2020-06-11 01:00:00 19.2 4 Este 9 Este 0 -- -- 80
2020-06-11 00:00:00 19.8 6 Este 13 Este 0 -- -- 76
2020-06-10 23:00:00 20.6 6 Nordeste 12 Nordeste 0 -- -- 69
2020-06-10 22:00:00 21.9 7 Este 16 Sudeste 0 -- -- 61
2020-06-10 21:00:00 23.6 9 Este 21 Sur 0 -- -- 57
2020-06-10 20:00:00 25.1 12 Sur 24 Sur 0 -- -- 53
2020-06-10 19:00:00 26 12 Sur 27 Sur 0 -- -- 49
2020-06-10 18:00:00 26.5 10 Sur 24 Sudeste 0 -- -- 48
2020-06-10 17:00:00 27.5 11 Sur 28 Sudeste 0 -- -- 47
2020-06-10 16:00:00 29 9 Sur 26 Sudeste 0 -- -- 42
2020-06-10 15:00:00 27.8 12 Sudeste 26 Sudeste 0 -- -- 45
2020-06-10 14:00:00 26.1 9 Sudeste 21 Sudeste 0 -- -- 50
2020-06-10 13:00:00 24.2 8 Sudeste 20 Sudeste 0 -- -- 58
2020-06-10 12:00:00 22.4 7 Este 16 Este 0 -- -- 63
2020-06-10 11:00:00 21.6 5 Sudeste 16 Este 0 -- -- 68
2020-06-10 10:00:00 19.7 4 Sudeste 10 Este 0 -- -- 75
2020-06-10 09:00:00 17 3 Norte 13 Oeste 0 -- -- 85
2020-06-10 08:00:00 14.6 7 Oeste 13 Sudoeste 0 -- -- 91
2020-06-10 07:00:00 13.9 7 Oeste 14 Oeste 0 -- -- 92
2020-06-10 06:00:00 14 7 Sudoeste 12 Oeste 0 -- -- 90
2020-06-10 05:00:00 14.5 8 Oeste 14 Sudoeste 0 -- -- 91
2020-06-10 04:00:00 14.7 9 Oeste 13 Oeste 0 -- -- 90
2020-06-10 03:00:00 15.3 8 Oeste 13 Oeste 0 -- -- 88
2020-06-10 02:00:00 16.4 4 Sudoeste 7 Sudoeste 0 -- -- 85
2020-06-10 01:00:00 17.1 0 Calma 5 Nordeste 0 -- -- 82
2020-06-10 00:00:00 18 2 Nordeste 4 Nordeste 0 -- -- 81
2020-06-09 23:00:00 19.2 0 Calma 7 Sudeste 0 -- -- 77
2020-06-09 22:00:00 19.9 4 Sudeste 10 Este 0 -- -- 75
2020-06-09 21:00:00 21.3 4 Sudeste 17 Sudeste 0 -- -- 69
2020-06-09 20:00:00 22.2 7 Sur 24 Sur 0 -- -- 64
2020-06-09 19:00:00 23.4 10 Sur 23 Sur 0 -- -- 57
2020-06-09 18:00:00 24.7 12 Sur 31 Sur 0 -- -- 53
2020-06-09 17:00:00 24.2 9 Sur 27 Sur 0 -- -- 53
2020-06-09 16:00:00 24.2 6 Sur 19 Sur 0.4 -- -- 58
2020-06-09 15:00:00 24.6 8 Sur 22 Sudeste 0 -- -- 49
2020-06-09 14:00:00 25.5 6 Sur 19 Este 0 -- -- 44
2020-06-09 13:00:00 24.9 5 Nordeste 15 Este 0 -- -- 46
2020-06-09 12:00:00 23.5 6 Sur 14 Sudeste 0 -- -- 51
2020-06-09 11:00:00 21.7 6 Oeste 11 Noroeste 0 -- -- 57
2020-06-09 10:00:00 19.4 4 Noroeste 14 Oeste 0 -- -- 66
2020-06-09 09:00:00 18.2 8 Oeste 15 Oeste 0 -- -- 76
2020-06-09 08:00:00 17.1 5 Oeste 10 Oeste 0 -- -- 87
2020-06-09 07:00:00 16.9 0 Calma 4 Sudeste 0 -- -- 88
2020-06-09 06:00:00 16.7 0 Calma 3 Sur 0 -- -- 87
2020-06-09 05:00:00 16.6 0 Calma 5 Este 0 -- -- 88
2020-06-09 04:00:00 16.6 3 Este 9 Sudeste 0 -- -- 88
2020-06-09 03:00:00 16.8 5 Este 13 Nordeste 0 -- -- 87
2020-06-09 02:00:00 17 3 Nordeste 11 Este 0 -- -- 86
2020-06-09 01:00:00 16.9 3 Este 7 Sudeste 0 -- -- 85
2020-06-09 00:00:00 17.3 2 Sur 6 Este 0 -- -- 83
2020-06-08 23:00:00 17.5 3 Sudeste 8 Sudeste 0 -- -- 82
2020-06-08 22:00:00 18.2 3 Sudeste 16 Sudeste 0 -- -- 79
2020-06-08 21:00:00 18.9 5 Este 17 Este 0 -- -- 76
2020-06-08 20:00:00 19.7 8 Este 16 Este 0 -- -- 69
2020-06-08 19:00:00 19.5 9 Sudeste 26 Este 0 -- -- 67
2020-06-08 18:00:00 19.3 11 Sudeste 31 Este 0 -- -- 76
2020-06-08 17:00:00 20.1 15 Este 33 Este 0 -- -- 75
2020-06-08 16:00:00 21.6 11 Este 25 Este 0 -- -- 67
2020-06-08 15:00:00 21.5 9 Sudeste 26 Sudeste 0 -- -- 65
2020-06-08 14:00:00 19.3 15 Sudeste 26 Sudeste 0.8 -- -- 85
2020-06-08 13:00:00 23.2 12 Este 23 Sudeste 0 -- -- 64
2020-06-08 12:00:00 23.3 12 Este 22 Este 0 -- -- 59
2020-06-08 11:00:00 22.1 7 Este 15 Este 0 -- -- 65
2020-06-08 10:00:00 20.7 7 Este 13 Este 0 -- -- 73
2020-06-08 09:00:00 18.5 2 Nordeste 8 Oeste 0 -- -- 66
2020-06-08 08:00:00 17.2 4 Oeste 15 Sudoeste 0 -- -- 68
2020-06-08 07:00:00 16.5 10 Sudoeste 18 Sudoeste 0 -- -- 70
2020-06-08 06:00:00 18 8 Oeste 13 Oeste 0 -- -- 63
2020-06-08 05:00:00 18.7 6 Noroeste 17 Noroeste 0 -- -- 60
2020-06-08 04:00:00 19 5 Noroeste 15 Noroeste 0 -- -- 60
2020-06-08 03:00:00 18.8 8 Noroeste 12 Noroeste 0 -- -- 60
2020-06-08 02:00:00 20.2 4 Este 19 Noroeste 0 -- -- 55
2020-06-08 01:00:00 20.8 12 Oeste 19 Oeste 0 -- -- 51
2020-06-08 00:00:00 20.6 9 Sudoeste 14 Sudoeste 0 -- -- 52